MST,Max TemperatureF,Mean TemperatureF,Min TemperatureF,Max Dew PointF,MeanDew PointF,Min DewpointF,Max Humidity, Mean Humidity, Min Humidity, Max Sea Level PressureIn, Mean Sea Level PressureIn, Min Sea Level PressureIn, Max VisibilityMiles, Mean VisibilityMiles, Min VisibilityMiles, Max Wind SpeedMPH, Mean Wind SpeedMPH, Max Gust SpeedMPH,PrecipitationIn, CloudCover, Events, WindDirDegrees
2014-5-1,73,59,45,13,10,6,26,14,4,30.23,30.12,30.01,10,10,10,9,3,,0.00,0,,310
2014-5-2,82,65,48,22,16,10,23,13,4,30.18,29.98,29.85,10,10,10,7,3,22,0.00,0,,178
2014-5-3,90,72,55,22,15,10,24,12,4,29.93,29.83,29.73,10,10,10,9,4,20,0.00,0,,263
2014-5-4,88,76,64,18,10,0,14,8,4,29.95,29.77,29.69,10,10,10,14,7,23,0.00,0,,215
2014-5-5,87,74,60,15,6,-2,12,7,4,29.94,29.69,29.56,10,10,10,13,9,26,0.00,0,,209
2014-5-6,75,66,52,20,12,4,20,11,4,29.56,29.47,29.40,10,10,9,22,14,37,0.00,0,,203
2014-5-7,63,56,48,38,29,17,63,38,14,29.82,29.68,29.54,10,10,8,17,6,28,0.02,4,Rain,236
2014-5-8,71,57,43,35,25,14,66,31,6,30.00,29.87,29.82,10,10,10,10,4,18,0.00,1,,293
2014-5-9,81,66,52,26,21,17,26,16,4,29.97,29.78,29.67,10,10,10,15,5,26,0.00,1,,258
2014-5-10,81,68,55,31,27,21,34,19,7,29.87,29.55,29.35,10,10,10,17,7,28,0.00,1,,229
2014-5-11,70,57,44,38,32,26,68,47,29,29.95,29.65,29.40,10,10,8,20,11,29,0.01,6,Rain,299
2014-5-12,64,54,44,35,28,21,66,38,14,30.31,30.10,29.98,10,10,10,24,7,17,0.00,2,,10
2014-5-13,64,54,43,29,16,7,48,23,6,30.43,30.32,30.24,10,10,10,15,5,23,0.00,0,,37
2014-5-14,73,58,44,17,12,4,28,16,4,30.46,30.28,30.15,10,10,10,10,3,,0.00,0,,350
2014-5-15,84,66,48,27,20,14,27,16,5,30.20,30.08,29.96,10,10,10,13,4,18,0.00,0,,20
2014-5-16,88,72,57,27,20,14,28,14,4,30.15,29.89,29.77,10,10,10,13,3,22,0.00,0,,278
2014-5-17,93,76,59,22,17,14,21,10,4,29.80,29.71,29.62,10,10,10,9,3,18,0.00,0,,296
2014-5-18,91,78,66,23,13,7,18,8,4,29.65,29.57,29.49,10,10,10,18,7,28,0.00,0,,207
2014-5-19,90,76,63,21,14,3,16,9,4,29.84,29.61,29.53,10,10,10,14,8,25,0.00,0,,224
2014-5-20,84,74,63,12,6,1,10,7,4,29.88,29.68,29.61,10,10,10,23,12,31,0.00,0,,186
2014-5-21,82,68,53,14,8,2,18,9,4,29.94,29.75,29.68,10,10,10,18,10,37,0.00,0,,184
2014-5-22,84,68,53,19,13,3,22,11,4,29.98,29.82,29.73,10,9,5,18,7,32,0.00,0,,185
2014-5-23,73,64,55,46,38,19,63,40,14,30.10,29.95,29.83,10,10,4,13,7,22,0.04,4,Rain-Thunderstorm,321
2014-5-24,77,64,51,43,37,30,69,39,12,30.02,29.91,29.83,10,10,10,18,5,26,0.00,2,Thunderstorm,194
2014-5-25,81,68,55,44,38,34,48,32,13,30.02,29.85,29.79,10,10,10,14,4,17,0.00,1,,105
2014-5-26,89,73,57,45,40,31,60,32,6,30.05,29.91,29.80,10,10,10,9,5,,0.00,0,,66
2014-5-27,97,80,62,36,31,25,34,17,4,30.04,29.85,29.75,10,10,10,9,4,,0.00,0,,189
2014-5-28,96,83,70,34,30,24,22,13,5,29.91,29.75,29.65,10,10,10,16,5,25,0.00,0,,202
2014-5-29,84,78,71,42,32,23,34,19,5,30.06,29.84,29.71,10,10,10,23,8,30,0.00,0,,185
2014-5-30,90,77,64,43,38,32,40,25,8,30.07,29.84,29.71,10,10,10,10,6,,0.01,1,Rain-Thunderstorm,174
2014-5-31,95,79,63,28,23,15,23,12,4,30.01,29.74,29.61,10,10,10,13,5,32,0.00,0,,226